sensor_id;sensor_type;location;lat;lon;timestamp;temperature;humidity
67769;DHT22;54569;52.018;5.584;2023-02-03T00:00:35;9.10;96.90
67769;DHT22;54569;52.018;5.584;2023-02-03T00:03:01;9.10;96.80
67769;DHT22;54569;52.018;5.584;2023-02-03T00:05:27;9.00;96.80
67769;DHT22;54569;52.018;5.584;2023-02-03T00:07:53;9.10;96.80
67769;DHT22;54569;52.018;5.584;2023-02-03T00:10:19;9.10;96.70
67769;DHT22;54569;52.018;5.584;2023-02-03T00:12:49;9.10;96.80
67769;DHT22;54569;52.018;5.584;2023-02-03T00:15:15;9.10;96.70
67769;DHT22;54569;52.018;5.584;2023-02-03T00:17:41;9.20;96.60
67769;DHT22;54569;52.018;5.584;2023-02-03T00:20:08;9.10;96.60
67769;DHT22;54569;52.018;5.584;2023-02-03T00:22:34;9.20;96.50
67769;DHT22;54569;52.018;5.584;2023-02-03T00:24:59;9.20;96.60
67769;DHT22;54569;52.018;5.584;2023-02-03T00:27:25;9.20;96.50
67769;DHT22;54569;52.018;5.584;2023-02-03T00:29:51;9.20;96.40
67769;DHT22;54569;52.018;5.584;2023-02-03T00:32:17;9.20;96.40
67769;DHT22;54569;52.018;5.584;2023-02-03T00:34:42;9.20;96.40
67769;DHT22;54569;52.018;5.584;2023-02-03T00:37:08;9.20;96.40
67769;DHT22;54569;52.018;5.584;2023-02-03T00:39:36;9.20;96.40
67769;DHT22;54569;52.018;5.584;2023-02-03T00:42:03;9.20;96.40
67769;DHT22;54569;52.018;5.584;2023-02-03T00:44:29;9.20;96.50
67769;DHT22;54569;52.018;5.584;2023-02-03T00:46:56;9.20;96.40
67769;DHT22;54569;52.018;5.584;2023-02-03T00:49:22;9.20;96.40
67769;DHT22;54569;52.018;5.584;2023-02-03T00:51:48;9.20;96.40
67769;DHT22;54569;52.018;5.584;2023-02-03T00:54:15;9.20;96.30
67769;DHT22;54569;52.018;5.584;2023-02-03T00:56:41;9.20;96.30
67769;DHT22;54569;52.018;5.584;2023-02-03T00:59:06;9.20;96.30
67769;DHT22;54569;52.018;5.584;2023-02-03T01:01:33;9.20;96.30
67769;DHT22;54569;52.018;5.584;2023-02-03T01:03:59;9.20;96.30
67769;DHT22;54569;52.018;5.584;2023-02-03T01:06:25;9.20;96.30
67769;DHT22;54569;52.018;5.584;2023-02-03T01:08:52;9.20;96.30
67769;DHT22;54569;52.018;5.584;2023-02-03T01:11:24;9.20;96.30
67769;DHT22;54569;52.018;5.584;2023-02-03T01:13:53;9.20;96.20
67769;DHT22;54569;52.018;5.584;2023-02-03T01:16:20;9.20;96.30
67769;DHT22;54569;52.018;5.584;2023-02-03T01:18:47;9.20;96.20
67769;DHT22;54569;52.018;5.584;2023-02-03T01:21:19;9.20;96.30
67769;DHT22;54569;52.018;5.584;2023-02-03T01:23:45;9.20;96.20
67769;DHT22;54569;52.018;5.584;2023-02-03T01:26:14;9.20;96.50
67769;DHT22;54569;52.018;5.584;2023-02-03T01:28:40;9.20;96.20
67769;DHT22;54569;52.018;5.584;2023-02-03T01:31:42;9.20;96.10
67769;DHT22;54569;52.018;5.584;2023-02-03T01:34:07;9.20;96.10
67769;DHT22;54569;52.018;5.584;2023-02-03T01:36:34;9.20;96.10
67769;DHT22;54569;52.018;5.584;2023-02-03T01:39:02;9.20;96.00
67769;DHT22;54569;52.018;5.584;2023-02-03T01:41:30;9.20;96.00
67769;DHT22;54569;52.018;5.584;2023-02-03T01:43:58;9.20;96.00
67769;DHT22;54569;52.018;5.584;2023-02-03T01:48:59;9.10;96.00
67769;DHT22;54569;52.018;5.584;2023-02-03T01:51:27;9.20;96.00
67769;DHT22;54569;52.018;5.584;2023-02-03T01:53:53;9.20;96.00
67769;DHT22;54569;52.018;5.584;2023-02-03T01:56:20;9.10;95.90
67769;DHT22;54569;52.018;5.584;2023-02-03T01:58:47;9.10;95.90
67769;DHT22;54569;52.018;5.584;2023-02-03T02:01:14;9.20;95.90
67769;DHT22;54569;52.018;5.584;2023-02-03T02:03:47;9.20;95.90
67769;DHT22;54569;52.018;5.584;2023-02-03T02:06:14;9.20;95.90
67769;DHT22;54569;52.018;5.584;2023-02-03T02:08:43;9.20;95.90
67769;DHT22;54569;52.018;5.584;2023-02-03T02:11:10;9.20;95.90
67769;DHT22;54569;52.018;5.584;2023-02-03T02:13:39;9.20;95.90
67769;DHT22;54569;52.018;5.584;2023-02-03T02:30:53;9.20;95.70
67769;DHT22;54569;52.018;5.584;2023-02-03T02:33:45;9.20;95.70
67769;DHT22;54569;52.018;5.584;2023-02-03T02:36:20;9.20;95.70
67769;DHT22;54569;52.018;5.584;2023-02-03T02:39:22;9.10;95.90
67769;DHT22;54569;52.018;5.584;2023-02-03T02:42:00;9.10;95.70
67769;DHT22;54569;52.018;5.584;2023-02-03T02:44:40;9.10;95.70
67769;DHT22;54569;52.018;5.584;2023-02-03T02:47:18;9.10;95.60
67769;DHT22;54569;52.018;5.584;2023-02-03T02:49:53;9.10;95.60
67769;DHT22;54569;52.018;5.584;2023-02-03T02:52:20;9.10;95.50
67769;DHT22;54569;52.018;5.584;2023-02-03T02:54:51;9.10;95.50
67769;DHT22;54569;52.018;5.584;2023-02-03T02:57:19;9.10;95.50
67769;DHT22;54569;52.018;5.584;2023-02-03T02:59:48;9.10;95.50
67769;DHT22;54569;52.018;5.584;2023-02-03T03:02:14;9.20;95.50
67769;DHT22;54569;52.018;5.584;2023-02-03T03:04:41;9.10;95.40
67769;DHT22;54569;52.018;5.584;2023-02-03T03:07:16;9.10;95.40
67769;DHT22;54569;52.018;5.584;2023-02-03T03:09:53;9.10;95.40
67769;DHT22;54569;52.018;5.584;2023-02-03T03:12:31;9.20;95.40
67769;DHT22;54569;52.018;5.584;2023-02-03T03:15:11;9.10;95.30
67769;DHT22;54569;52.018;5.584;2023-02-03T03:17:53;9.10;95.30
67769;DHT22;54569;52.018;5.584;2023-02-03T03:20:24;9.10;95.30
67769;DHT22;54569;52.018;5.584;2023-02-03T03:22:58;9.10;95.40
67769;DHT22;54569;52.018;5.584;2023-02-03T03:25:27;9.10;95.40
67769;DHT22;54569;52.018;5.584;2023-02-03T03:28:01;9.10;95.60
67769;DHT22;54569;52.018;5.584;2023-02-03T03:30:38;9.10;95.50
67769;DHT22;54569;52.018;5.584;2023-02-03T03:33:05;9.10;95.40
67769;DHT22;54569;52.018;5.584;2023-02-03T03:38:14;9.10;95.40
67769;DHT22;54569;52.018;5.584;2023-02-03T03:40:47;9.10;95.40
67769;DHT22;54569;52.018;5.584;2023-02-03T03:43:22;9.10;95.40
67769;DHT22;54569;52.018;5.584;2023-02-03T03:48:46;9.10;95.40
67769;DHT22;54569;52.018;5.584;2023-02-03T03:51:30;9.10;95.40
67769;DHT22;54569;52.018;5.584;2023-02-03T03:54:03;9.10;95.40
67769;DHT22;54569;52.018;5.584;2023-02-03T03:56:35;9.10;95.40
67769;DHT22;54569;52.018;5.584;2023-02-03T03:59:04;9.20;95.40
67769;DHT22;54569;52.018;5.584;2023-02-03T04:01:35;9.20;95.40
67769;DHT22;54569;52.018;5.584;2023-02-03T04:04:05;9.20;95.30
67769;DHT22;54569;52.018;5.584;2023-02-03T04:06:36;9.20;95.30
67769;DHT22;54569;52.018;5.584;2023-02-03T04:09:02;9.20;95.30
67769;DHT22;54569;52.018;5.584;2023-02-03T04:11:29;9.20;95.30
67769;DHT22;54569;52.018;5.584;2023-02-03T04:14:14;9.20;95.30
67769;DHT22;54569;52.018;5.584;2023-02-03T04:16:39;9.20;95.30
67769;DHT22;54569;52.018;5.584;2023-02-03T04:19:05;9.20;95.20
67769;DHT22;54569;52.018;5.584;2023-02-03T04:21:31;9.20;95.20
67769;DHT22;54569;52.018;5.584;2023-02-03T04:23:57;9.20;95.20
67769;DHT22;54569;52.018;5.584;2023-02-03T04:26:23;9.20;95.20
67769;DHT22;54569;52.018;5.584;2023-02-03T04:28:48;9.20;95.10
67769;DHT22;54569;52.018;5.584;2023-02-03T04:31:15;9.20;95.10
67769;DHT22;54569;52.018;5.584;2023-02-03T04:33:40;9.20;95.10
67769;DHT22;54569;52.018;5.584;2023-02-03T04:36:08;9.20;95.10
67769;DHT22;54569;52.018;5.584;2023-02-03T04:38:34;9.30;95.10
67769;DHT22;54569;52.018;5.584;2023-02-03T04:41:00;9.30;95.10
67769;DHT22;54569;52.018;5.584;2023-02-03T04:43:25;9.30;95.10
67769;DHT22;54569;52.018;5.584;2023-02-03T04:45:51;9.20;95.10
67769;DHT22;54569;52.018;5.584;2023-02-03T04:48:17;9.20;95.10
67769;DHT22;54569;52.018;5.584;2023-02-03T04:50:42;9.30;95.10
67769;DHT22;54569;52.018;5.584;2023-02-03T04:53:11;9.30;95.10
67769;DHT22;54569;52.018;5.584;2023-02-03T04:55:37;9.30;95.00
67769;DHT22;54569;52.018;5.584;2023-02-03T04:58:02;9.30;95.00
67769;DHT22;54569;52.018;5.584;2023-02-03T05:00:28;9.30;95.00
67769;DHT22;54569;52.018;5.584;2023-02-03T05:02:54;9.30;94.90
67769;DHT22;54569;52.018;5.584;2023-02-03T05:05:20;9.30;94.90
67769;DHT22;54569;52.018;5.584;2023-02-03T05:07:46;9.30;94.90
67769;DHT22;54569;52.018;5.584;2023-02-03T05:10:12;9.30;94.90
67769;DHT22;54569;52.018;5.584;2023-02-03T05:12:37;9.30;94.90
67769;DHT22;54569;52.018;5.584;2023-02-03T05:15:04;9.30;94.90
67769;DHT22;54569;52.018;5.584;2023-02-03T05:17:29;9.30;94.90
67769;DHT22;54569;52.018;5.584;2023-02-03T05:19:55;9.30;95.00
67769;DHT22;54569;52.018;5.584;2023-02-03T05:22:21;9.30;94.90
67769;DHT22;54569;52.018;5.584;2023-02-03T05:24:47;9.30;94.90
67769;DHT22;54569;52.018;5.584;2023-02-03T05:27:12;9.30;94.90
67769;DHT22;54569;52.018;5.584;2023-02-03T05:29:38;9.30;94.90
67769;DHT22;54569;52.018;5.584;2023-02-03T05:32:04;9.30;94.80
67769;DHT22;54569;52.018;5.584;2023-02-03T05:34:29;9.30;94.80
67769;DHT22;54569;52.018;5.584;2023-02-03T05:36:55;9.40;94.80
67769;DHT22;54569;52.018;5.584;2023-02-03T05:39:21;9.40;94.80
67769;DHT22;54569;52.018;5.584;2023-02-03T05:41:46;9.40;94.80
67769;DHT22;54569;52.018;5.584;2023-02-03T05:44:22;9.30;94.70
67769;DHT22;54569;52.018;5.584;2023-02-03T05:46:49;9.40;94.70
67769;DHT22;54569;52.018;5.584;2023-02-03T05:49:15;9.40;94.70
67769;DHT22;54569;52.018;5.584;2023-02-03T05:51:41;9.40;94.70
67769;DHT22;54569;52.018;5.584;2023-02-03T05:54:07;9.40;94.70
67769;DHT22;54569;52.018;5.584;2023-02-03T05:56:33;9.40;94.70
67769;DHT22;54569;52.018;5.584;2023-02-03T05:58:59;9.40;94.70
67769;DHT22;54569;52.018;5.584;2023-02-03T06:01:25;9.40;94.70
67769;DHT22;54569;52.018;5.584;2023-02-03T06:03:50;9.40;94.70
67769;DHT22;54569;52.018;5.584;2023-02-03T06:06:16;9.40;94.80
67769;DHT22;54569;52.018;5.584;2023-02-03T06:08:43;9.30;94.70
67769;DHT22;54569;52.018;5.584;2023-02-03T06:11:09;9.30;94.70
67769;DHT22;54569;52.018;5.584;2023-02-03T06:13:35;9.40;94.70
67769;DHT22;54569;52.018;5.584;2023-02-03T06:16:01;9.40;94.70
67769;DHT22;54569;52.018;5.584;2023-02-03T06:18:27;9.30;94.60
67769;DHT22;54569;52.018;5.584;2023-02-03T06:20:53;9.40;94.60
67769;DHT22;54569;52.018;5.584;2023-02-03T06:23:18;9.40;94.60
67769;DHT22;54569;52.018;5.584;2023-02-03T06:25:47;9.40;94.50
67769;DHT22;54569;52.018;5.584;2023-02-03T06:28:13;9.40;94.50
67769;DHT22;54569;52.018;5.584;2023-02-03T06:30:38;9.40;94.50
67769;DHT22;54569;52.018;5.584;2023-02-03T06:33:04;9.40;94.50
67769;DHT22;54569;52.018;5.584;2023-02-03T06:35:30;9.40;94.40
67769;DHT22;54569;52.018;5.584;2023-02-03T06:37:55;9.40;94.30
67769;DHT22;54569;52.018;5.584;2023-02-03T06:40:21;9.50;94.30
67769;DHT22;54569;52.018;5.584;2023-02-03T06:42:47;9.50;94.30
67769;DHT22;54569;52.018;5.584;2023-02-03T06:45:14;9.50;94.20
67769;DHT22;54569;52.018;5.584;2023-02-03T06:47:40;9.50;94.10
67769;DHT22;54569;52.018;5.584;2023-02-03T06:50:07;9.50;94.00
67769;DHT22;54569;52.018;5.584;2023-02-03T06:52:32;9.60;94.30
67769;DHT22;54569;52.018;5.584;2023-02-03T06:54:58;9.60;94.00
67769;DHT22;54569;52.018;5.584;2023-02-03T06:57:24;9.60;93.90
67769;DHT22;54569;52.018;5.584;2023-02-03T06:59:49;9.60;93.90
67769;DHT22;54569;52.018;5.584;2023-02-03T07:02:17;9.60;93.90
67769;DHT22;54569;52.018;5.584;2023-02-03T07:04:43;9.60;93.90
67769;DHT22;54569;52.018;5.584;2023-02-03T07:07:13;9.60;93.80
67769;DHT22;54569;52.018;5.584;2023-02-03T07:09:39;9.60;93.80
67769;DHT22;54569;52.018;5.584;2023-02-03T07:12:06;9.60;93.80
67769;DHT22;54569;52.018;5.584;2023-02-03T07:14:32;9.60;93.70
67769;DHT22;54569;52.018;5.584;2023-02-03T07:17:01;9.60;93.70
67769;DHT22;54569;52.018;5.584;2023-02-03T07:19:27;9.60;93.70
67769;DHT22;54569;52.018;5.584;2023-02-03T07:21:53;9.60;93.70
67769;DHT22;54569;52.018;5.584;2023-02-03T07:24:19;9.60;93.70
67769;DHT22;54569;52.018;5.584;2023-02-03T07:26:44;9.60;93.70
67769;DHT22;54569;52.018;5.584;2023-02-03T07:29:10;9.60;93.70
67769;DHT22;54569;52.018;5.584;2023-02-03T07:31:36;9.60;93.70
67769;DHT22;54569;52.018;5.584;2023-02-03T07:34:03;9.60;93.70
67769;DHT22;54569;52.018;5.584;2023-02-03T07:36:29;9.60;93.70
67769;DHT22;54569;52.018;5.584;2023-02-03T07:38:55;9.60;93.70
67769;DHT22;54569;52.018;5.584;2023-02-03T07:41:21;9.60;93.70
67769;DHT22;54569;52.018;5.584;2023-02-03T07:43:46;9.70;93.70
67769;DHT22;54569;52.018;5.584;2023-02-03T07:46:12;9.70;93.70
67769;DHT22;54569;52.018;5.584;2023-02-03T07:48:38;9.70;93.70
67769;DHT22;54569;52.018;5.584;2023-02-03T07:51:04;9.70;93.60
67769;DHT22;54569;52.018;5.584;2023-02-03T07:53:30;9.70;93.60
67769;DHT22;54569;52.018;5.584;2023-02-03T07:56:03;9.70;93.60
67769;DHT22;54569;52.018;5.584;2023-02-03T07:58:30;9.70;93.60
67769;DHT22;54569;52.018;5.584;2023-02-03T08:00:56;9.70;93.50
67769;DHT22;54569;52.018;5.584;2023-02-03T08:03:23;9.70;93.50
67769;DHT22;54569;52.018;5.584;2023-02-03T08:05:49;9.80;93.50
67769;DHT22;54569;52.018;5.584;2023-02-03T08:08:15;9.80;93.50
67769;DHT22;54569;52.018;5.584;2023-02-03T08:10:41;9.80;93.50
67769;DHT22;54569;52.018;5.584;2023-02-03T08:13:06;9.80;93.50
67769;DHT22;54569;52.018;5.584;2023-02-03T08:15:32;9.80;93.40
67769;DHT22;54569;52.018;5.584;2023-02-03T08:17:58;9.80;93.50
67769;DHT22;54569;52.018;5.584;2023-02-03T08:20:24;9.80;93.40
67769;DHT22;54569;52.018;5.584;2023-02-03T08:22:49;9.90;93.40
67769;DHT22;54569;52.018;5.584;2023-02-03T08:25:15;9.90;93.40
67769;DHT22;54569;52.018;5.584;2023-02-03T08:27:41;9.90;93.40
67769;DHT22;54569;52.018;5.584;2023-02-03T08:30:08;9.90;93.40
67769;DHT22;54569;52.018;5.584;2023-02-03T08:32:35;9.90;93.40
67769;DHT22;54569;52.018;5.584;2023-02-03T08:35:01;9.90;93.40
67769;DHT22;54569;52.018;5.584;2023-02-03T08:37:27;9.90;93.40
67769;DHT22;54569;52.018;5.584;2023-02-03T08:39:56;10.00;93.40
67769;DHT22;54569;52.018;5.584;2023-02-03T08:42:22;10.00;93.30
67769;DHT22;54569;52.018;5.584;2023-02-03T08:44:47;10.00;93.40
67769;DHT22;54569;52.018;5.584;2023-02-03T08:47:14;10.00;93.30
67769;DHT22;54569;52.018;5.584;2023-02-03T08:49:40;10.00;93.30
67769;DHT22;54569;52.018;5.584;2023-02-03T08:52:07;10.00;93.30
67769;DHT22;54569;52.018;5.584;2023-02-03T08:54:33;10.10;93.30
67769;DHT22;54569;52.018;5.584;2023-02-03T08:56:59;10.10;93.20
67769;DHT22;54569;52.018;5.584;2023-02-03T08:59:25;10.10;93.20
67769;DHT22;54569;52.018;5.584;2023-02-03T09:01:51;10.10;93.20
67769;DHT22;54569;52.018;5.584;2023-02-03T09:04:18;10.10;93.20
67769;DHT22;54569;52.018;5.584;2023-02-03T09:06:50;10.20;93.10
67769;DHT22;54569;52.018;5.584;2023-02-03T09:09:15;10.20;93.10
67769;DHT22;54569;52.018;5.584;2023-02-03T09:11:42;10.20;93.00
67769;DHT22;54569;52.018;5.584;2023-02-03T09:14:08;10.20;93.00
67769;DHT22;54569;52.018;5.584;2023-02-03T09:16:35;10.30;93.00
67769;DHT22;54569;52.018;5.584;2023-02-03T09:19:00;10.30;92.90
67769;DHT22;54569;52.018;5.584;2023-02-03T09:21:26;10.40;92.90
67769;DHT22;54569;52.018;5.584;2023-02-03T09:23:52;10.40;92.80
67769;DHT22;54569;52.018;5.584;2023-02-03T09:26:18;10.40;92.70
67769;DHT22;54569;52.018;5.584;2023-02-03T09:28:43;10.40;92.70
67769;DHT22;54569;52.018;5.584;2023-02-03T09:31:11;10.50;92.70
67769;DHT22;54569;52.018;5.584;2023-02-03T09:33:38;10.50;92.60
67769;DHT22;54569;52.018;5.584;2023-02-03T09:36:05;10.60;92.60
67769;DHT22;54569;52.018;5.584;2023-02-03T09:38:31;10.60;92.50
67769;DHT22;54569;52.018;5.584;2023-02-03T09:43:53;10.70;92.30
67769;DHT22;54569;52.018;5.584;2023-02-03T09:46:27;10.80;96.40
67769;DHT22;54569;52.018;5.584;2023-02-03T09:48:58;10.90;98.70
67769;DHT22;54569;52.018;5.584;2023-02-03T09:51:41;10.80;98.80
67769;DHT22;54569;52.018;5.584;2023-02-03T09:57:00;10.80;98.30
67769;DHT22;54569;52.018;5.584;2023-02-03T09:59:30;10.80;97.40
67769;DHT22;54569;52.018;5.584;2023-02-03T10:02:12;10.90;97.10
67769;DHT22;54569;52.018;5.584;2023-02-03T10:05:03;10.90;97.20
67769;DHT22;54569;52.018;5.584;2023-02-03T10:10:35;10.90;97.00
67769;DHT22;54569;52.018;5.584;2023-02-03T10:18:35;10.90;96.80
67769;DHT22;54569;52.018;5.584;2023-02-03T10:21:11;10.90;96.80
67769;DHT22;54569;52.018;5.584;2023-02-03T10:23:39;10.90;96.90
67769;DHT22;54569;52.018;5.584;2023-02-03T10:26:15;10.90;96.60
67769;DHT22;54569;52.018;5.584;2023-02-03T10:28:55;10.90;96.30
67769;DHT22;54569;52.018;5.584;2023-02-03T10:31:23;10.80;96.30
67769;DHT22;54569;52.018;5.584;2023-02-03T10:34:03;10.80;96.10
67769;DHT22;54569;52.018;5.584;2023-02-03T10:42:09;10.90;95.80
67769;DHT22;54569;52.018;5.584;2023-02-03T10:44:39;10.90;94.80
67769;DHT22;54569;52.018;5.584;2023-02-03T10:47:38;10.90;93.50
67769;DHT22;54569;52.018;5.584;2023-02-03T10:50:17;10.90;92.80
67769;DHT22;54569;52.018;5.584;2023-02-03T10:52:43;10.90;92.50
67769;DHT22;54569;52.018;5.584;2023-02-03T10:57:50;10.90;91.80
67769;DHT22;54569;52.018;5.584;2023-02-03T11:00:29;10.90;91.90
67769;DHT22;54569;52.018;5.584;2023-02-03T11:03:20;10.90;91.80
67769;DHT22;54569;52.018;5.584;2023-02-03T11:05:46;11.00;91.50
67769;DHT22;54569;52.018;5.584;2023-02-03T11:08:15;11.00;91.70
67769;DHT22;54569;52.018;5.584;2023-02-03T11:10:42;11.00;96.30
67769;DHT22;54569;52.018;5.584;2023-02-03T11:13:23;11.20;94.00
67769;DHT22;54569;52.018;5.584;2023-02-03T11:16:15;11.10;92.10
67769;DHT22;54569;52.018;5.584;2023-02-03T11:26:27;11.10;91.50
67769;DHT22;54569;52.018;5.584;2023-02-03T11:28:57;11.10;91.50
67769;DHT22;54569;52.018;5.584;2023-02-03T11:31:26;11.10;91.50
67769;DHT22;54569;52.018;5.584;2023-02-03T11:34:13;11.20;91.50
67769;DHT22;54569;52.018;5.584;2023-02-03T11:36:40;11.20;91.50
67769;DHT22;54569;52.018;5.584;2023-02-03T11:41:46;11.20;91.30
67769;DHT22;54569;52.018;5.584;2023-02-03T11:46:52;11.30;91.40
67769;DHT22;54569;52.018;5.584;2023-02-03T11:52:41;11.30;91.10
67769;DHT22;54569;52.018;5.584;2023-02-03T11:58:09;11.40;91.20
67769;DHT22;54569;52.018;5.584;2023-02-03T12:03:30;11.40;91.10
67769;DHT22;54569;52.018;5.584;2023-02-03T12:06:11;11.40;91.00
67769;DHT22;54569;52.018;5.584;2023-02-03T12:31:12;11.20;91.10
67769;DHT22;54569;52.018;5.584;2023-02-03T12:33:46;11.20;91.30
67769;DHT22;54569;52.018;5.584;2023-02-03T12:36:17;11.20;91.30
67769;DHT22;54569;52.018;5.584;2023-02-03T12:41:44;11.20;91.50
67769;DHT22;54569;52.018;5.584;2023-02-03T12:44:22;11.10;91.70
67769;DHT22;54569;52.018;5.584;2023-02-03T12:46:55;11.10;91.90
67769;DHT22;54569;52.018;5.584;2023-02-03T12:49:37;11.10;92.20
67769;DHT22;54569;52.018;5.584;2023-02-03T12:52:23;11.00;92.20
67769;DHT22;54569;52.018;5.584;2023-02-03T12:57:28;10.80;92.70
67769;DHT22;54569;52.018;5.584;2023-02-03T13:03:05;10.70;93.10
67769;DHT22;54569;52.018;5.584;2023-02-03T13:06:14;10.70;93.30
67769;DHT22;54569;52.018;5.584;2023-02-03T13:11:37;10.60;93.80
67769;DHT22;54569;52.018;5.584;2023-02-03T13:16:41;10.40;94.00
67769;DHT22;54569;52.018;5.584;2023-02-03T13:19:23;10.40;94.20
67769;DHT22;54569;52.018;5.584;2023-02-03T13:21:49;10.40;94.20
67769;DHT22;54569;52.018;5.584;2023-02-03T13:24:15;10.40;94.20
67769;DHT22;54569;52.018;5.584;2023-02-03T13:27:04;10.50;94.20
67769;DHT22;54569;52.018;5.584;2023-02-03T13:29:58;10.40;94.20
67769;DHT22;54569;52.018;5.584;2023-02-03T13:36:04;10.50;94.20
67769;DHT22;54569;52.018;5.584;2023-02-03T13:41:47;10.50;94.10
67769;DHT22;54569;52.018;5.584;2023-02-03T13:44:20;10.50;94.00
67769;DHT22;54569;52.018;5.584;2023-02-03T13:46:49;10.50;94.00
67769;DHT22;54569;52.018;5.584;2023-02-03T13:49:29;10.50;93.90
67769;DHT22;54569;52.018;5.584;2023-02-03T13:51:55;10.50;93.80
67769;DHT22;54569;52.018;5.584;2023-02-03T13:56:59;10.50;93.70
67769;DHT22;54569;52.018;5.584;2023-02-03T14:04:52;10.50;93.50
67769;DHT22;54569;52.018;5.584;2023-02-03T14:07:37;10.50;93.60
67769;DHT22;54569;52.018;5.584;2023-02-03T14:12:54;10.50;93.50
67769;DHT22;54569;52.018;5.584;2023-02-03T14:22:57;10.50;93.30
67769;DHT22;54569;52.018;5.584;2023-02-03T14:25:24;10.50;93.30
67769;DHT22;54569;52.018;5.584;2023-02-03T14:27:59;10.50;93.20
67769;DHT22;54569;52.018;5.584;2023-02-03T14:30:27;10.50;93.10
67769;DHT22;54569;52.018;5.584;2023-02-03T14:32:58;10.50;93.10
67769;DHT22;54569;52.018;5.584;2023-02-03T14:35:31;10.50;93.00
67769;DHT22;54569;52.018;5.584;2023-02-03T14:38:02;10.60;92.90
67769;DHT22;54569;52.018;5.584;2023-02-03T14:51:50;10.60;92.70
67769;DHT22;54569;52.018;5.584;2023-02-03T14:54:38;10.50;92.70
67769;DHT22;54569;52.018;5.584;2023-02-03T15:02:30;10.50;92.70
67769;DHT22;54569;52.018;5.584;2023-02-03T15:07:54;10.50;92.40
67769;DHT22;54569;52.018;5.584;2023-02-03T15:10:40;10.40;92.60
67769;DHT22;54569;52.018;5.584;2023-02-03T15:13:26;10.50;92.60
67769;DHT22;54569;52.018;5.584;2023-02-03T15:16:02;10.40;92.50
67769;DHT22;54569;52.018;5.584;2023-02-03T15:18:33;10.40;92.50
67769;DHT22;54569;52.018;5.584;2023-02-03T15:21:03;10.40;92.50
67769;DHT22;54569;52.018;5.584;2023-02-03T15:23:37;10.40;92.50
67769;DHT22;54569;52.018;5.584;2023-02-03T15:26:18;10.30;92.50
67769;DHT22;54569;52.018;5.584;2023-02-03T15:28:53;10.30;92.40
67769;DHT22;54569;52.018;5.584;2023-02-03T15:31:44;10.30;92.50
67769;DHT22;54569;52.018;5.584;2023-02-03T15:36:48;10.20;92.50
67769;DHT22;54569;52.018;5.584;2023-02-03T15:41:41;10.10;92.50
67769;DHT22;54569;52.018;5.584;2023-02-03T15:44:29;10.10;92.40
67769;DHT22;54569;52.018;5.584;2023-02-03T15:47:00;10.10;92.30
67769;DHT22;54569;52.018;5.584;2023-02-03T15:49:32;10.10;92.40
67769;DHT22;54569;52.018;5.584;2023-02-03T15:52:14;10.10;92.30
67769;DHT22;54569;52.018;5.584;2023-02-03T15:54:44;10.00;92.20
67769;DHT22;54569;52.018;5.584;2023-02-03T15:59:48;10.00;92.20
67769;DHT22;54569;52.018;5.584;2023-02-03T16:02:21;10.00;92.20
67769;DHT22;54569;52.018;5.584;2023-02-03T16:04:50;10.00;92.20
67769;DHT22;54569;52.018;5.584;2023-02-03T16:07:28;9.90;92.20
67769;DHT22;54569;52.018;5.584;2023-02-03T16:09:55;9.90;92.10
67769;DHT22;54569;52.018;5.584;2023-02-03T16:12:29;9.90;92.10
67769;DHT22;54569;52.018;5.584;2023-02-03T16:14:56;9.90;92.10
67769;DHT22;54569;52.018;5.584;2023-02-03T16:17:29;9.90;92.00
67769;DHT22;54569;52.018;5.584;2023-02-03T16:25:27;9.80;91.70
67769;DHT22;54569;52.018;5.584;2023-02-03T16:30:56;9.80;91.50
67769;DHT22;54569;52.018;5.584;2023-02-03T16:33:46;9.70;91.50
67769;DHT22;54569;52.018;5.584;2023-02-03T16:36:30;9.70;91.50
67769;DHT22;54569;52.018;5.584;2023-02-03T16:39:15;9.70;91.50
67769;DHT22;54569;52.018;5.584;2023-02-03T16:41:59;9.70;91.50
67769;DHT22;54569;52.018;5.584;2023-02-03T16:44:48;9.60;91.50
67769;DHT22;54569;52.018;5.584;2023-02-03T16:47:33;9.70;91.50
67769;DHT22;54569;52.018;5.584;2023-02-03T16:50:19;9.60;91.50
67769;DHT22;54569;52.018;5.584;2023-02-03T16:53:16;9.70;91.50
67769;DHT22;54569;52.018;5.584;2023-02-03T16:55:42;9.60;91.40
67769;DHT22;54569;52.018;5.584;2023-02-03T16:58:08;9.60;91.30
67769;DHT22;54569;52.018;5.584;2023-02-03T17:00:37;9.60;91.30
67769;DHT22;54569;52.018;5.584;2023-02-03T17:03:06;9.60;91.30
67769;DHT22;54569;52.018;5.584;2023-02-03T17:05:36;9.50;91.30
67769;DHT22;54569;52.018;5.584;2023-02-03T17:08:03;9.50;91.30
67769;DHT22;54569;52.018;5.584;2023-02-03T17:10:28;9.50;91.30
67769;DHT22;54569;52.018;5.584;2023-02-03T17:12:54;9.50;91.30
67769;DHT22;54569;52.018;5.584;2023-02-03T17:15:20;9.50;91.30
67769;DHT22;54569;52.018;5.584;2023-02-03T17:17:46;9.50;91.40
67769;DHT22;54569;52.018;5.584;2023-02-03T17:20:11;9.50;91.40
67769;DHT22;54569;52.018;5.584;2023-02-03T17:22:37;9.40;91.40
67769;DHT22;54569;52.018;5.584;2023-02-03T17:25:03;9.40;91.40
67769;DHT22;54569;52.018;5.584;2023-02-03T17:27:29;9.40;91.60
67769;DHT22;54569;52.018;5.584;2023-02-03T17:29:54;9.40;91.40
67769;DHT22;54569;52.018;5.584;2023-02-03T17:32:21;9.40;91.50
67769;DHT22;54569;52.018;5.584;2023-02-03T17:34:47;9.40;91.50
67769;DHT22;54569;52.018;5.584;2023-02-03T17:37:12;9.30;91.40
67769;DHT22;54569;52.018;5.584;2023-02-03T17:39:38;9.30;91.50
67769;DHT22;54569;52.018;5.584;2023-02-03T17:42:04;9.30;91.50
67769;DHT22;54569;52.018;5.584;2023-02-03T17:44:29;9.30;91.50
67769;DHT22;54569;52.018;5.584;2023-02-03T17:46:55;9.30;91.50
67769;DHT22;54569;52.018;5.584;2023-02-03T17:49:21;9.30;91.50
67769;DHT22;54569;52.018;5.584;2023-02-03T17:51:46;9.30;91.50
67769;DHT22;54569;52.018;5.584;2023-02-03T17:54:12;9.30;91.50
67769;DHT22;54569;52.018;5.584;2023-02-03T17:56:38;9.20;91.50
67769;DHT22;54569;52.018;5.584;2023-02-03T17:59:04;9.20;91.50
67769;DHT22;54569;52.018;5.584;2023-02-03T18:01:30;9.20;91.50
67769;DHT22;54569;52.018;5.584;2023-02-03T18:03:58;9.20;91.50
67769;DHT22;54569;52.018;5.584;2023-02-03T18:06:26;9.20;91.50
67769;DHT22;54569;52.018;5.584;2023-02-03T18:08:52;9.20;91.60
67769;DHT22;54569;52.018;5.584;2023-02-03T18:11:19;9.20;91.60
67769;DHT22;54569;52.018;5.584;2023-02-03T18:13:47;9.20;91.70
67769;DHT22;54569;52.018;5.584;2023-02-03T18:16:15;9.10;91.80
67769;DHT22;54569;52.018;5.584;2023-02-03T18:18:42;9.20;91.90
67769;DHT22;54569;52.018;5.584;2023-02-03T18:21:10;9.10;91.90
67769;DHT22;54569;52.018;5.584;2023-02-03T18:23:37;9.10;92.00
67769;DHT22;54569;52.018;5.584;2023-02-03T18:26:03;9.10;92.00
67769;DHT22;54569;52.018;5.584;2023-02-03T18:28:29;9.10;92.10
67769;DHT22;54569;52.018;5.584;2023-02-03T18:31:03;9.10;92.10
67769;DHT22;54569;52.018;5.584;2023-02-03T18:33:29;9.10;92.10
67769;DHT22;54569;52.018;5.584;2023-02-03T18:35:57;9.00;92.10
67769;DHT22;54569;52.018;5.584;2023-02-03T18:38:27;9.00;92.10
67769;DHT22;54569;52.018;5.584;2023-02-03T18:40:55;9.00;92.10